Grizzly Air Cargo 5369


PADU
Unalaska Airport
Unalaska, Alaska, US
PANC
Ted Stevens Anchorage International Airport
Anchorage, Alaska, US

Activity Log

Date Flight Route Aircraft Duration
12/16/2019 GRZ5369 N0446F410 DUT J115 AKN Q47 AMOTT AMOTT4 B738 1h 56m
11/27/2019 GRZ5369 DUT J115 TUCKS AMOTT4 B722 1h 37m

Route Details

Aircraft Information
Primary: Boeing 727-200F
Backup: Boeing 737-800BCF
Route Data
Distance: 712nm
Sched. Duration: 2h 00m
Avg. Duration: 1h 46m (-55m)
Times Flown: 2
Recm'd Route: DUT J115 TUCKS AMOTT4
Planned Altitude: 33,000ft
Origin Wx: PADU 181629Z 25005KT 8SM -SN SCT016 BKN023 OVC050 01/M03 A2955 RMK AO2 UPE04SNB05 P0000
Dest. Wx: PANC 181553Z 22003KT 1/2SM R07R/5500V6000FT SN VV008 00/00 A2961 RMK AO2 SLP029 P0011 T00000000 $
Notes:

Financial History
Total Freight: 45,562lbs
Average Load: 22,781lbs/flt
Fuel Used: 17,391lbs
Avg. Fuel Used: 8,696lbs/flt
Fuel Expense: $12,869
Avg. Fuel Expense: $6,435
Avg. Fuel Cost: $0.74/lbs
Total Gross Income: $126,662
Pilot Pay: $468
Total Expenses: $13,784
Total Revenue: $99,325
Average Revenue: $63,331.18